createdAt,value
2022-10-29T00:07:29.693Z,41.65
2022-10-29T00:17:31.291Z,42.53
2022-10-29T00:27:33.114Z,40.78
2022-10-29T00:37:36.135Z,38.25
2022-10-29T00:47:38.254Z,42.67
2022-10-29T00:57:43.633Z,42.40
2022-10-29T01:07:47.727Z,44.05
2022-10-29T01:18:27.774Z,38.85
2022-10-29T01:29:21.928Z,36.00
2022-10-29T01:49:42.954Z,37.63
2022-10-29T01:59:55.638Z,41.08
2022-10-29T02:20:16.162Z,46.08
2022-10-29T02:30:18.587Z,51.55
2022-10-29T02:40:21.120Z,46.20
2022-10-29T02:50:22.705Z,45.90
2022-10-29T03:00:24.324Z,42.30
2022-10-29T03:10:25.924Z,42.05
2022-10-29T03:20:27.585Z,39.78
2022-10-29T03:30:32.292Z,37.55
2022-10-29T03:40:33.862Z,32.67
2022-10-29T03:50:39.649Z,34.15
2022-10-29T04:00:42.489Z,36.33
2022-10-29T04:10:45.821Z,38.47
2022-10-29T04:23:01.925Z,34.40
2022-10-29T04:31:12.299Z,37.65
2022-10-29T04:41:14.938Z,35.53
2022-10-29T04:51:22.063Z,33.63
2022-10-29T05:01:25.297Z,33.42
2022-10-29T05:11:27.100Z,34.85
2022-10-29T05:21:32.592Z,37.33
2022-10-29T05:31:34.237Z,39.40
2022-10-29T05:41:35.950Z,36.30
2022-10-29T05:51:37.774Z,35.47
2022-10-29T06:01:40.540Z,33.63
2022-10-29T06:11:47.311Z,41.15
2022-10-29T06:21:52.540Z,41.90
2022-10-29T06:31:56.776Z,46.35
2022-10-29T06:42:00.440Z,41.10
2022-10-29T06:52:02.018Z,42.50
2022-10-29T07:02:03.730Z,39.42
2022-10-29T07:12:06.019Z,43.58
2022-10-29T07:22:10.785Z,44.77
2022-10-29T07:32:12.399Z,46.03
2022-10-29T07:42:14.037Z,45.22
2022-10-29T07:52:16.762Z,43.38
2022-10-29T08:02:19.467Z,38.80
2022-10-29T08:12:21.568Z,40.28
2022-10-29T08:22:24.430Z,36.00
2022-10-29T08:32:35.758Z,39.15
2022-10-29T08:42:58.562Z,39.03
2022-10-29T08:53:22.325Z,43.25
2022-10-29T09:13:50.887Z,43.00
2022-10-29T09:24:05.455Z,44.20
2022-10-29T09:34:18.044Z,40.50
2022-10-29T09:44:38.059Z,37.27
2022-10-29T09:54:39.858Z,44.80
2022-10-29T10:04:49.220Z,47.13
2022-10-29T10:15:06.746Z,45.00
2022-10-29T10:25:32.796Z,44.25
2022-10-29T10:35:35.817Z,38.67
2022-10-29T10:45:40.266Z,35.05
2022-10-29T10:55:49.074Z,36.88
2022-10-29T11:06:08.488Z,36.22
2022-10-29T11:16:31.244Z,35.00
2022-10-29T11:26:36.680Z,35.67
2022-10-29T11:36:47.159Z,39.60
2022-10-29T11:47:28.906Z,38.55
2022-10-29T11:57:55.724Z,36.08
2022-10-29T12:08:03.330Z,36.38
2022-10-29T12:18:23.328Z,35.50
2022-10-29T12:28:34.653Z,29.88
2022-10-29T12:38:45.582Z,30.50
2022-10-29T12:49:05.638Z,32.35
2022-10-29T12:59:27.369Z,35.85
2022-10-29T13:09:36.826Z,37.25
2022-10-29T13:20:09.073Z,39.17
2022-10-29T13:30:27.175Z,41.03
2022-10-29T13:40:32.622Z,39.65
2022-10-29T13:50:35.322Z,36.75
2022-10-29T14:00:38.706Z,40.90
2022-10-29T14:10:40.324Z,35.28
2022-10-29T14:20:57.265Z,31.80
2022-10-29T14:31:21.918Z,29.33
2022-10-29T14:41:25.730Z,29.13
2022-10-29T14:51:28.439Z,28.92
2022-10-29T15:01:31.429Z,28.65
2022-10-29T15:11:47.777Z,28.40
2022-10-29T15:21:50.282Z,29.15
2022-10-29T15:31:55.850Z,32.13
2022-10-29T15:42:01.188Z,31.15
2022-10-29T15:52:09.071Z,30.73
2022-10-29T16:02:17.509Z,28.70
2022-10-29T16:12:21.811Z,29.67
2022-10-29T16:22:30.954Z,27.88
2022-10-29T16:32:33.002Z,27.42
2022-10-29T16:42:36.305Z,28.03
2022-10-29T16:52:39.894Z,28.08
2022-10-29T17:02:44.814Z,27.83
2022-10-29T17:12:49.572Z,30.30
2022-10-29T17:22:53.731Z,30.90
2022-10-29T17:32:55.763Z,29.63
2022-10-29T17:42:59.586Z,30.42
2022-10-29T17:53:02.146Z,31.98
2022-10-29T18:03:05.148Z,34.83
2022-10-29T18:13:07.530Z,34.97
2022-10-29T18:23:10.293Z,39.73
2022-10-29T18:33:13.323Z,40.17
2022-10-29T18:43:14.982Z,39.33
2022-10-29T18:53:17.365Z,45.55
2022-10-29T19:03:20.368Z,46.30
2022-10-29T19:13:24.057Z,46.58
2022-10-29T19:23:26.271Z,47.70
2022-10-29T19:33:30.810Z,50.53
2022-10-29T19:43:32.919Z,52.67
2022-10-29T19:53:37.412Z,53.50
2022-10-29T20:03:39.032Z,49.63
2022-10-29T20:13:41.095Z,49.65
2022-10-29T20:23:43.577Z,82.53
2022-10-29T20:33:56.796Z,62.88
2022-10-29T20:54:01.578Z,58.90
2022-10-29T21:04:04.396Z,60.67
2022-10-29T21:14:08.775Z,60.17
2022-10-29T21:24:17.912Z,60.58
2022-10-29T21:34:19.557Z,64.18
2022-10-29T21:44:21.789Z,63.88
2022-10-29T21:54:25.791Z,64.00
2022-10-29T22:04:30.089Z,60.03
2022-10-29T22:14:31.694Z,63.22
2022-10-29T22:24:34.562Z,56.40
2022-10-29T22:44:39.163Z,37.67
2022-10-29T22:54:41.828Z,38.65
2022-10-29T23:04:43.385Z,40.90
2022-10-29T23:14:45.009Z,42.08
2022-10-29T23:24:52.468Z,40.38
2022-10-29T23:34:54.097Z,37.63
2022-10-29T23:44:56.293Z,41.23
2022-10-29T23:54:59.486Z,43.08
